createdAt,value
2024-01-09T01:05:24.468Z,101205.29
2024-01-09T01:11:10.194Z,101202.59
2024-01-09T01:16:50.405Z,101211.05
2024-01-09T01:22:32.100Z,101223.66
2024-01-09T01:28:13.403Z,101237.34
2024-01-09T01:33:54.451Z,101232.67
2024-01-09T01:39:36.566Z,101245.47
2024-01-09T01:45:18.810Z,101237.72
2024-01-09T01:50:59.661Z,101242.75
2024-01-09T01:56:42.125Z,101232.48
2024-01-09T02:02:22.906Z,101235.00
2024-01-09T02:08:06.465Z,101213.95
2024-01-09T02:13:48.139Z,101217.52
2024-01-09T02:19:29.608Z,101227.09
2024-01-09T02:25:10.760Z,101235.00
2024-01-09T02:30:54.742Z,101238.61
2024-01-09T02:36:35.189Z,101231.94
2024-01-09T02:42:16.375Z,101236.98
2024-01-09T02:47:56.769Z,101220.42
2024-01-09T02:53:37.281Z,101227.61
2024-01-09T02:59:17.534Z,101224.73
2024-01-09T03:04:58.675Z,101235.19
2024-01-09T03:10:40.180Z,101243.48
2024-01-09T03:16:21.512Z,101210.16
2024-01-09T03:22:03.148Z,101197.72
2024-01-09T03:27:43.437Z,101215.91
2024-01-09T03:33:26.177Z,101193.77
2024-01-09T03:39:08.036Z,101192.51
2024-01-09T03:44:49.087Z,101204.02
2024-01-09T03:50:30.630Z,101199.16
2024-01-09T03:56:11.106Z,101187.78
2024-01-09T13:05:20.815Z,101412.83
2024-01-09T13:11:04.240Z,101432.44
2024-01-09T13:16:44.950Z,101420.82
2024-01-09T13:28:08.092Z,101428.28
2024-01-09T13:33:49.281Z,101405.67
2024-01-09T13:39:30.295Z,101419.98
2024-01-09T13:45:10.362Z,101432.34
2024-01-09T13:56:33.853Z,101443.16
2024-01-09T14:02:14.593Z,101436.30
2024-01-09T14:07:54.961Z,101443.66
2024-01-09T14:13:36.226Z,101446.07
2024-01-09T14:19:19.468Z,101457.20
2024-01-09T14:25:00.574Z,101471.13
2024-01-09T14:30:42.224Z,101456.58
2024-01-09T14:36:23.892Z,101455.86
2024-01-09T14:42:05.334Z,101466.17
2024-01-09T14:47:45.869Z,101457.95
2024-01-09T14:53:26.547Z,101478.33
2024-01-09T15:05:06.430Z,101488.20
2024-01-09T15:10:47.299Z,101472.03
2024-01-09T15:16:28.054Z,101463.34
2024-01-09T15:22:08.112Z,101443.69
2024-01-09T15:27:49.005Z,101452.98
2024-01-09T15:33:30.043Z,101442.23
2024-01-09T15:39:11.620Z,101411.06
2024-01-09T15:44:52.761Z,101409.89
2024-01-09T15:50:34.862Z,101410.94
2024-01-09T15:56:21.055Z,101422.61
2024-01-09T16:05:55.179Z,101438.34
2024-01-09T16:11:35.458Z,101449.25
2024-01-09T16:17:21.223Z,101448.64
2024-01-09T16:23:01.958Z,101445.21
2024-01-09T16:28:42.801Z,101451.80
2024-01-09T16:34:23.280Z,101447.47
2024-01-09T16:40:06.452Z,101432.63
2024-01-09T16:45:48.732Z,101434.73
2024-01-09T16:51:29.726Z,101446.24
2024-01-09T16:57:10.512Z,101437.55
2024-01-09T17:02:51.221Z,101436.50
2024-01-09T17:08:32.785Z,101442.35
2024-01-09T17:14:13.361Z,101437.84
2024-01-09T17:19:54.433Z,101434.84
2024-01-09T17:25:34.989Z,101421.98
2024-01-09T17:31:16.365Z,101409.70
2024-01-09T17:36:56.790Z,101410.14
2024-01-09T17:42:39.352Z,101414.91
2024-01-09T17:48:21.518Z,101405.77
2024-01-09T17:54:01.618Z,101406.37
2024-01-09T17:59:43.927Z,101408.60
2024-01-09T18:05:24.838Z,101403.69
2024-01-09T18:11:05.708Z,101406.41
2024-01-09T18:16:46.882Z,101382.93
2024-01-09T18:22:27.221Z,101377.06
2024-01-09T18:28:07.775Z,101379.89
2024-01-09T18:33:48.080Z,101379.28
2024-01-09T18:39:28.213Z,101374.79
2024-01-09T18:45:09.653Z,101368.80
2024-01-09T18:50:51.388Z,101372.37
2024-01-09T18:56:32.892Z,101334.13
2024-01-09T19:05:30.186Z,101317.42
2024-01-09T19:11:13.966Z,101326.23
2024-01-09T19:16:54.350Z,101321.98
2024-01-09T19:22:35.689Z,101324.02
2024-01-09T19:28:17.056Z,101311.63
2024-01-09T19:33:57.340Z,101297.31
2024-01-09T19:39:38.298Z,101299.89
2024-01-09T19:45:18.641Z,101298.75
2024-01-09T19:50:59.801Z,101294.45
2024-01-09T19:56:40.036Z,101266.29
2024-01-09T20:02:21.353Z,101251.66
2024-01-09T20:08:02.308Z,101243.77
2024-01-09T20:13:43.789Z,101233.56
2024-01-09T20:19:25.350Z,101225.94
2024-01-09T20:25:06.988Z,101222.40
2024-01-09T20:30:47.135Z,101224.70
2024-01-09T20:36:27.349Z,101187.92
2024-01-09T20:42:08.449Z,101193.59
2024-01-09T20:47:49.039Z,101199.33
2024-01-09T20:53:29.503Z,101188.09
2024-01-09T20:59:10.000Z,101188.61
2024-01-09T21:04:50.240Z,101188.11
2024-01-09T21:10:30.484Z,101186.06
2024-01-09T21:16:12.703Z,101168.80
2024-01-09T21:21:53.029Z,101152.53
2024-01-09T21:27:36.037Z,101141.41
2024-01-09T21:33:15.459Z,101119.77
2024-01-09T21:38:55.685Z,101132.19
2024-01-09T21:44:35.956Z,101108.21
2024-01-09T21:49:58.271Z,101107.07
2024-01-09T21:55:38.833Z,101105.37
2024-01-09T22:05:38.217Z,101098.64
2024-01-09T22:11:18.418Z,101087.11
2024-01-09T22:16:58.652Z,101084.68
2024-01-09T22:22:39.748Z,101061.55
2024-01-09T22:28:20.524Z,101062.28
